createdAt,value
2022-09-18T00:01:38.566Z,1.10
2022-09-18T00:04:09.919Z,1.02
2022-09-18T00:06:42.945Z,1.00
2022-09-18T00:09:14.581Z,1.10
2022-09-18T00:11:47.952Z,1.05
2022-09-18T00:14:23.588Z,1.20
2022-09-18T00:16:51.371Z,0.98
2022-09-18T00:19:21.829Z,1.00
2022-09-18T00:21:54.244Z,1.20
2022-09-18T00:24:23.342Z,1.10
2022-09-18T00:26:55.665Z,1.10
2022-09-18T00:29:23.002Z,1.30
2022-09-18T00:31:50.346Z,1.15
2022-09-18T00:34:20.114Z,1.00
2022-09-18T00:36:47.425Z,1.20
2022-09-18T00:39:14.721Z,1.10
2022-09-18T00:41:44.114Z,1.00
2022-09-18T00:44:42.532Z,0.90
2022-09-18T00:47:09.763Z,0.90
2022-09-18T00:49:44.541Z,0.75
2022-09-18T00:52:14.203Z,0.95
2022-09-18T00:54:54.656Z,1.00
2022-09-18T00:57:31.064Z,1.10
2022-09-18T00:59:59.777Z,0.90
2022-09-18T01:02:29.651Z,0.90
2022-09-18T01:04:57.147Z,0.95
2022-09-18T01:07:36.014Z,1.05
2022-09-18T01:10:21.053Z,1.00
2022-09-18T01:12:56.043Z,0.90
2022-09-18T01:15:37.531Z,1.10
2022-09-18T01:18:33.886Z,1.08
2022-09-18T01:21:01.161Z,1.10
2022-09-18T01:23:59.349Z,1.00
2022-09-18T01:26:44.765Z,1.30
2022-09-18T01:29:18.030Z,1.10
2022-09-18T01:31:52.752Z,0.95
2022-09-18T01:34:30.271Z,0.90
2022-09-18T01:37:21.974Z,1.00
2022-09-18T01:39:58.387Z,1.00
2022-09-18T01:42:32.074Z,1.10
2022-09-18T01:45:07.227Z,1.23
2022-09-18T01:47:44.738Z,1.00
2022-09-18T01:50:15.002Z,0.90
2022-09-18T01:53:10.009Z,1.42
2022-09-18T01:55:41.860Z,1.00
2022-09-18T01:58:22.606Z,1.33
2022-09-18T02:00:58.344Z,1.05
2022-09-18T02:03:35.609Z,1.02
2022-09-18T02:06:18.019Z,1.20
2022-09-18T02:08:51.433Z,1.40
2022-09-18T02:11:21.993Z,1.00
2022-09-18T02:13:52.459Z,1.25
2022-09-18T02:16:33.331Z,1.30
2022-09-18T02:19:10.221Z,1.13
2022-09-18T02:21:39.901Z,1.20
2022-09-18T02:24:10.746Z,1.15
2022-09-18T02:26:40.439Z,1.25
2022-09-18T02:29:12.348Z,1.10
2022-09-18T02:31:42.370Z,1.48
2022-09-18T02:34:12.413Z,1.40
2022-09-18T02:37:01.074Z,1.30
2022-09-18T02:40:10.171Z,1.17
2022-09-18T02:43:04.550Z,1.08
2022-09-18T02:46:02.278Z,1.52
2022-09-18T02:49:08.084Z,1.20
2022-09-18T02:51:57.222Z,1.23
2022-09-18T02:54:47.300Z,1.13
2022-09-18T02:57:21.703Z,1.13
2022-09-18T02:59:56.119Z,1.20
2022-09-18T03:02:24.978Z,1.17
2022-09-18T03:04:54.863Z,1.25
2022-09-18T03:07:22.483Z,1.42
2022-09-18T03:09:49.797Z,1.02
2022-09-18T03:12:17.249Z,1.30
2022-09-18T03:14:44.652Z,1.30
2022-09-18T03:17:14.546Z,1.40
2022-09-18T03:19:44.617Z,1.20
2022-09-18T03:22:12.346Z,1.30
2022-09-18T03:24:47.362Z,1.30
2022-09-18T03:27:18.047Z,1.20
2022-09-18T03:29:45.344Z,1.20
2022-09-18T03:32:15.144Z,1.55
2022-09-18T03:34:42.417Z,1.10
2022-09-18T03:37:09.689Z,1.10
2022-09-18T03:39:37.005Z,1.40
2022-09-18T03:42:04.508Z,1.35
2022-09-18T03:44:31.820Z,1.10
2022-09-18T03:47:01.324Z,1.25
2022-09-18T03:49:28.592Z,1.35
2022-09-18T03:51:55.857Z,1.33
2022-09-18T03:54:23.172Z,1.50
2022-09-18T03:56:51.552Z,1.48
2022-09-18T03:59:21.724Z,1.20
2022-09-18T04:01:49.005Z,1.15
2022-09-18T04:04:16.362Z,1.30
2022-09-18T04:06:43.649Z,1.10
2022-09-18T04:09:10.915Z,1.30
2022-09-18T04:11:38.232Z,1.60
2022-09-18T04:14:05.544Z,1.70
2022-09-18T04:16:32.932Z,1.92
2022-09-18T04:19:02.840Z,1.40
2022-09-18T04:21:35.122Z,1.42
2022-09-18T04:24:04.738Z,1.50
2022-09-18T04:26:35.934Z,1.40
2022-09-18T04:29:03.849Z,1.40
2022-09-18T04:31:31.355Z,1.50
2022-09-18T04:33:58.785Z,1.70
2022-09-18T04:36:28.439Z,1.80
2022-09-18T04:38:55.649Z,1.75
2022-09-18T04:41:28.675Z,1.58
2022-09-18T04:43:58.328Z,1.08
2022-09-18T04:46:27.707Z,1.35
2022-09-18T04:48:55.026Z,1.15
2022-09-18T04:51:22.286Z,1.20
2022-09-18T04:53:49.605Z,1.30
2022-09-18T04:56:19.058Z,1.20
2022-09-18T04:58:46.471Z,1.30
2022-09-18T05:01:14.431Z,1.50
2022-09-18T05:03:43.984Z,1.00
2022-09-18T05:06:11.243Z,1.23
2022-09-18T05:08:40.966Z,1.20
2022-09-18T05:11:10.953Z,1.33
2022-09-18T05:13:40.801Z,1.45
2022-09-18T05:16:08.115Z,1.20
2022-09-18T05:18:38.536Z,1.35
2022-09-18T05:21:06.572Z,1.35
2022-09-18T05:23:36.127Z,1.20
2022-09-18T05:26:06.372Z,1.50
2022-09-18T05:28:34.178Z,1.70
2022-09-18T05:31:01.643Z,2.20
2022-09-18T05:33:31.471Z,1.85
2022-09-18T05:35:59.222Z,1.65
2022-09-18T05:38:26.876Z,1.60
2022-09-18T05:40:54.224Z,1.90
2022-09-18T05:43:23.847Z,1.70
2022-09-18T05:45:53.643Z,1.50
2022-09-18T05:48:21.027Z,1.63
2022-09-18T05:50:48.582Z,1.50
2022-09-18T05:53:18.403Z,1.77
2022-09-18T05:55:46.167Z,1.60
2022-09-18T05:58:18.356Z,1.63
2022-09-18T06:00:51.213Z,1.40
2022-09-18T06:03:18.682Z,1.58
2022-09-18T06:05:55.032Z,1.77
2022-09-18T06:08:25.034Z,1.70
2022-09-18T06:10:53.744Z,1.63
2022-09-18T06:13:21.093Z,1.30
2022-09-18T06:15:52.234Z,1.90
2022-09-18T06:18:22.316Z,1.70
2022-09-18T06:20:56.928Z,1.70
2022-09-18T06:23:26.097Z,1.52
2022-09-18T06:26:00.511Z,1.00
2022-09-18T06:28:30.832Z,0.90
2022-09-18T06:31:02.488Z,0.90
2022-09-18T06:33:33.209Z,0.75
2022-09-18T06:36:01.420Z,0.90
2022-09-18T06:38:28.735Z,1.10
2022-09-18T06:40:56.086Z,1.27
2022-09-18T06:43:23.334Z,1.40
2022-09-18T06:45:54.259Z,1.63
2022-09-18T06:48:22.269Z,1.70
2022-09-18T06:50:57.175Z,2.10
2022-09-18T06:53:24.731Z,2.33
2022-09-18T06:55:54.520Z,2.05
2022-09-18T06:58:21.819Z,2.00
2022-09-18T07:00:49.132Z,2.00
2022-09-18T07:03:21.149Z,2.28
2022-09-18T07:05:48.418Z,1.90
2022-09-18T07:08:15.772Z,1.70
2022-09-18T07:10:45.671Z,1.98
2022-09-18T07:13:12.910Z,1.80
2022-09-18T07:15:42.720Z,2.20
2022-09-18T07:18:10.219Z,2.63
2022-09-18T07:20:40.005Z,2.30
2022-09-18T07:23:10.164Z,1.90
2022-09-18T07:25:37.427Z,2.63
2022-09-18T07:28:08.055Z,2.03
2022-09-18T07:30:36.920Z,2.45
2022-09-18T07:33:08.803Z,2.15
2022-09-18T07:35:36.408Z,2.15
2022-09-18T07:38:06.312Z,2.15
2022-09-18T07:40:34.555Z,1.77
2022-09-18T07:43:04.871Z,1.90
2022-09-18T07:45:32.843Z,2.17
2022-09-18T07:48:05.663Z,1.92
2022-09-18T07:50:35.792Z,1.80
2022-09-18T07:53:05.448Z,2.10
2022-09-18T07:55:36.293Z,1.88
2022-09-18T07:58:06.530Z,1.73
2022-09-18T08:00:36.946Z,1.70
2022-09-18T08:03:09.901Z,1.73
2022-09-18T08:05:38.587Z,1.70
2022-09-18T08:08:07.552Z,1.88
2022-09-18T08:10:36.550Z,1.55
2022-09-18T08:13:04.346Z,1.67
2022-09-18T08:15:32.979Z,1.70
2022-09-18T08:18:01.227Z,1.45
2022-09-18T08:20:30.741Z,1.60
2022-09-18T08:22:58.643Z,1.73
2022-09-18T08:25:31.906Z,2.00
2022-09-18T08:28:03.703Z,1.75
2022-09-18T08:30:31.268Z,1.50
2022-09-18T08:33:00.109Z,2.10
2022-09-18T08:35:27.894Z,1.80
2022-09-18T08:37:55.633Z,1.83
2022-09-18T08:40:51.471Z,1.70
2022-09-18T08:43:51.169Z,1.77
2022-09-18T08:46:40.151Z,1.60
2022-09-18T08:49:39.553Z,1.65
2022-09-18T08:52:12.377Z,1.70
2022-09-18T08:55:17.509Z,1.40
2022-09-18T08:57:58.671Z,1.85
2022-09-18T09:00:39.030Z,1.55
2022-09-18T09:03:33.773Z,1.50
2022-09-18T09:06:31.360Z,1.60
2022-09-18T09:09:37.439Z,2.08
2022-09-18T09:12:43.303Z,1.63
2022-09-18T09:15:35.123Z,1.55
2022-09-18T09:20:55.925Z,2.15
2022-09-18T09:23:41.744Z,1.58
2022-09-18T09:26:18.756Z,1.80
2022-09-18T09:28:49.182Z,1.63
2022-09-18T09:31:22.799Z,1.33
2022-09-18T09:33:59.028Z,1.38
2022-09-18T09:36:29.837Z,1.35
2022-09-18T09:39:28.029Z,1.40
2022-09-18T09:42:15.832Z,1.40
2022-09-18T09:44:59.894Z,1.10
2022-09-18T09:47:56.376Z,1.10
2022-09-18T09:50:53.167Z,1.15
2022-09-18T09:53:26.836Z,1.50
2022-09-18T09:56:06.467Z,1.63
2022-09-18T09:58:56.234Z,1.48
2022-09-18T10:01:29.372Z,1.67
2022-09-18T10:04:31.629Z,1.40
2022-09-18T10:07:11.161Z,1.30
2022-09-18T10:09:47.286Z,1.63
2022-09-18T10:12:32.532Z,1.45
2022-09-18T10:15:27.537Z,1.13
2022-09-18T10:17:59.088Z,1.50
2022-09-18T10:20:34.196Z,1.23
2022-09-18T10:23:17.081Z,1.20
2022-09-18T10:25:51.118Z,1.10
2022-09-18T10:28:18.549Z,1.23
2022-09-18T10:31:06.200Z,1.27
2022-09-18T10:33:33.480Z,0.95
2022-09-18T10:36:09.100Z,1.13
2022-09-18T10:38:39.973Z,1.10
2022-09-18T10:41:38.107Z,1.10
2022-09-18T10:44:14.480Z,1.10
2022-09-18T10:47:05.344Z,1.13
2022-09-18T10:49:40.940Z,1.20
2022-09-18T10:52:23.676Z,1.10
2022-09-18T10:55:12.535Z,1.17
2022-09-18T10:57:48.595Z,1.00
2022-09-18T11:00:21.840Z,0.90
2022-09-18T11:02:54.362Z,0.80
2022-09-18T11:05:26.069Z,1.00
2022-09-18T11:10:27.750Z,1.00
2022-09-18T11:12:57.613Z,1.00
2022-09-18T11:15:31.697Z,0.90
2022-09-18T11:18:02.495Z,0.93
2022-09-18T11:20:40.328Z,0.82
2022-09-18T11:23:21.800Z,0.90
2022-09-18T11:25:49.292Z,0.88
2022-09-18T11:28:22.498Z,0.70
2022-09-18T11:31:15.381Z,1.10
2022-09-18T11:33:48.308Z,0.80
2022-09-18T11:36:24.531Z,0.77
2022-09-18T11:38:51.938Z,0.75
2022-09-18T11:41:33.186Z,0.70
2022-09-18T11:44:25.770Z,0.90
2022-09-18T11:47:02.749Z,0.90
2022-09-18T11:49:39.923Z,0.90
2022-09-18T11:52:16.448Z,0.70
2022-09-18T11:54:57.131Z,0.75
2022-09-18T11:57:35.315Z,0.77
2022-09-18T12:00:25.233Z,0.93
2022-09-18T12:03:04.669Z,0.90
2022-09-18T12:06:04.593Z,0.93
2022-09-18T12:08:45.366Z,0.80
2022-09-18T12:11:39.733Z,0.80
2022-09-18T12:14:41.783Z,0.90
2022-09-18T12:19:58.565Z,0.90
2022-09-18T12:22:31.930Z,0.82
2022-09-18T12:24:59.336Z,0.60
2022-09-18T12:27:35.370Z,0.85
2022-09-18T12:30:13.449Z,1.10
2022-09-18T12:33:16.191Z,0.75
2022-09-18T12:36:25.360Z,0.80
2022-09-18T12:39:30.066Z,0.90
2022-09-18T12:42:11.899Z,0.80
2022-09-18T12:47:57.105Z,0.80
2022-09-18T12:51:03.500Z,0.77
2022-09-18T12:53:49.646Z,0.90
2022-09-18T12:56:31.972Z,0.90
2022-09-18T12:59:25.321Z,0.85
2022-09-18T13:02:10.567Z,0.80
2022-09-18T13:04:44.780Z,0.90
2022-09-18T13:07:50.427Z,0.80
2022-09-18T13:10:20.809Z,0.68
2022-09-18T13:13:11.010Z,0.80
2022-09-18T13:15:52.321Z,1.10
2022-09-18T13:18:45.531Z,0.75
2022-09-18T13:21:22.863Z,1.00
2022-09-18T13:23:52.797Z,1.20
2022-09-18T13:26:23.124Z,1.90
2022-09-18T13:28:53.150Z,1.25
2022-09-18T13:31:23.893Z,0.90
2022-09-18T13:33:55.777Z,1.10
2022-09-18T13:36:28.423Z,1.20
2022-09-18T13:38:59.530Z,1.27
2022-09-18T13:41:28.462Z,0.90
2022-09-18T13:44:03.835Z,0.82
2022-09-18T13:46:39.619Z,0.85
2022-09-18T13:49:19.680Z,1.10
2022-09-18T13:51:47.388Z,0.98
2022-09-18T13:54:17.662Z,0.95
2022-09-18T13:57:10.406Z,1.15
2022-09-18T14:00:21.736Z,1.20
2022-09-18T14:03:08.986Z,0.90
2022-09-18T14:05:38.527Z,0.90
2022-09-18T14:08:24.227Z,0.93
2022-09-18T14:11:15.452Z,0.75
2022-09-18T14:13:54.488Z,0.80
2022-09-18T14:16:23.975Z,0.75
2022-09-18T14:19:06.069Z,0.95
2022-09-18T14:21:42.607Z,0.90
2022-09-18T14:24:38.852Z,1.00
2022-09-18T14:27:37.027Z,0.80
2022-09-18T14:30:26.799Z,1.05
2022-09-18T14:33:06.379Z,0.93
2022-09-18T14:35:58.921Z,0.93
2022-09-18T14:38:37.819Z,0.90
2022-09-18T14:41:26.457Z,0.75
2022-09-18T14:44:02.870Z,0.90
2022-09-18T14:46:32.213Z,1.23
2022-09-18T14:49:01.911Z,1.00
2022-09-18T14:51:44.894Z,1.13
2022-09-18T14:54:24.740Z,1.00
2022-09-18T14:56:59.893Z,1.40
2022-09-18T14:59:29.719Z,1.00
2022-09-18T15:02:35.377Z,1.00
2022-09-18T15:05:10.526Z,1.13
2022-09-18T15:07:41.715Z,1.00
2022-09-18T15:10:10.138Z,1.00
2022-09-18T15:12:39.803Z,1.02
2022-09-18T15:15:40.063Z,1.10
2022-09-18T15:18:27.507Z,1.33
2022-09-18T15:20:58.265Z,1.10
2022-09-18T15:23:38.241Z,1.03
2022-09-18T15:26:11.529Z,1.20
2022-09-18T15:28:42.141Z,1.23
2022-09-18T15:31:11.702Z,1.38
2022-09-18T15:33:59.256Z,1.50
2022-09-18T15:36:38.948Z,0.90
2022-09-18T15:39:07.545Z,1.27
2022-09-18T15:41:46.296Z,1.30
2022-09-18T15:44:32.041Z,1.15
2022-09-18T15:47:32.770Z,1.00
2022-09-18T15:50:20.716Z,1.20
2022-09-18T15:53:06.047Z,1.40
2022-09-18T15:55:46.149Z,1.20
2022-09-18T15:58:46.869Z,1.00
2022-09-18T16:01:22.964Z,0.80
2022-09-18T16:04:17.694Z,1.10
2022-09-18T16:07:21.656Z,1.00
2022-09-18T16:09:49.691Z,1.05
2022-09-18T16:12:32.646Z,0.90
2022-09-18T16:15:19.981Z,1.02
2022-09-18T16:18:13.731Z,1.00
2022-09-18T16:20:49.499Z,1.20
2022-09-18T16:23:30.919Z,1.00
2022-09-18T16:26:24.549Z,1.10
2022-09-18T16:28:56.109Z,1.10
2022-09-18T16:31:26.758Z,1.10
2022-09-18T16:34:02.640Z,1.17
2022-09-18T16:36:30.368Z,1.20
2022-09-18T16:39:00.606Z,1.20
2022-09-18T16:41:29.479Z,1.13
2022-09-18T16:44:00.991Z,1.20
2022-09-18T16:46:40.439Z,1.40
2022-09-18T16:49:09.476Z,1.40
2022-09-18T16:51:39.036Z,1.33
2022-09-18T16:54:06.441Z,1.30
2022-09-18T16:56:40.574Z,1.35
2022-09-18T16:59:08.611Z,1.50
2022-09-18T17:01:54.223Z,1.20
2022-09-18T17:04:26.354Z,1.50
2022-09-18T17:06:53.809Z,1.20
2022-09-18T17:09:24.018Z,1.38
2022-09-18T17:11:53.043Z,1.20
2022-09-18T17:14:20.928Z,1.40
2022-09-18T17:16:48.244Z,1.45
2022-09-18T17:19:15.687Z,1.30
2022-09-18T17:21:45.798Z,1.35
2022-09-18T17:24:17.442Z,1.25
2022-09-18T17:29:14.152Z,1.23
2022-09-18T17:31:48.346Z,1.50
2022-09-18T17:34:16.625Z,1.27
2022-09-18T17:36:43.937Z,1.42
2022-09-18T17:39:13.930Z,1.77
2022-09-18T17:41:42.631Z,1.98
2022-09-18T17:44:10.081Z,1.88
2022-09-18T17:46:37.394Z,2.70
2022-09-18T17:49:05.953Z,1.95
2022-09-18T17:51:37.681Z,2.40
2022-09-18T17:54:05.596Z,2.10
2022-09-18T17:56:35.188Z,2.25
2022-09-18T17:59:06.198Z,2.40
2022-09-18T18:01:38.349Z,2.72
2022-09-18T18:04:06.994Z,2.42
2022-09-18T18:06:35.174Z,1.63
2022-09-18T18:09:02.483Z,1.33
2022-09-18T18:11:29.790Z,1.25
2022-09-18T18:14:00.311Z,1.50
2022-09-18T18:16:31.127Z,1.55
2022-09-18T18:19:04.289Z,1.33
2022-09-18T18:21:33.052Z,1.40
2022-09-18T18:24:08.998Z,1.20
2022-09-18T18:26:42.865Z,1.35
2022-09-18T18:29:12.807Z,1.10
2022-09-18T18:31:45.624Z,1.30
2022-09-18T18:34:13.590Z,1.52
2022-09-18T18:36:45.195Z,1.10
2022-09-18T18:41:47.018Z,1.25
2022-09-18T18:44:14.820Z,1.05
2022-09-18T18:46:42.675Z,1.10
2022-09-18T18:49:13.195Z,1.02
2022-09-18T18:51:51.846Z,1.23
2022-09-18T18:54:21.407Z,1.10
2022-09-18T18:56:51.826Z,1.20
2022-09-18T18:59:22.194Z,1.30
2022-09-18T19:01:56.517Z,1.20
2022-09-18T19:04:24.711Z,1.23
2022-09-18T19:06:52.911Z,1.45
2022-09-18T19:09:24.603Z,1.23
2022-09-18T19:14:22.767Z,1.02
2022-09-18T19:16:53.244Z,1.15
2022-09-18T19:19:24.824Z,1.15
2022-09-18T19:21:52.909Z,1.30
2022-09-18T19:24:21.041Z,1.20
2022-09-18T19:26:51.278Z,1.40
2022-09-18T19:29:24.408Z,1.30
2022-09-18T19:31:54.003Z,1.17
2022-09-18T19:34:24.192Z,1.27
2022-09-18T19:36:53.912Z,1.30
2022-09-18T19:39:23.921Z,1.20
2022-09-18T19:42:06.648Z,1.27
2022-09-18T19:44:49.950Z,1.30
2022-09-18T19:47:20.568Z,1.38
2022-09-18T19:49:49.787Z,1.63
2022-09-18T19:52:21.581Z,1.73
2022-09-18T19:54:53.226Z,1.17
2022-09-18T19:59:52.755Z,1.30
2022-09-18T20:02:20.322Z,1.30
2022-09-18T20:04:47.606Z,1.50
2022-09-18T20:07:15.159Z,1.17
2022-09-18T20:09:44.830Z,1.27
2022-09-18T20:12:12.775Z,1.50
2022-09-18T20:14:40.253Z,1.20
2022-09-18T20:17:10.104Z,1.30
2022-09-18T20:19:40.227Z,1.45
2022-09-18T20:22:10.030Z,1.50
2022-09-18T20:24:37.315Z,1.60
2022-09-18T20:27:06.953Z,1.73
2022-09-18T20:29:34.345Z,1.42
2022-09-18T20:32:02.824Z,1.70
2022-09-18T20:34:30.115Z,1.50
2022-09-18T20:36:57.871Z,1.40
2022-09-18T20:39:30.076Z,1.48
2022-09-18T20:42:02.174Z,1.60
2022-09-18T20:44:30.250Z,1.80
2022-09-18T20:47:00.054Z,1.60
2022-09-18T20:49:27.379Z,1.40
2022-09-18T20:51:57.475Z,1.65
2022-09-18T20:54:27.075Z,1.20
2022-09-18T20:56:57.737Z,1.48
2022-09-18T20:59:25.005Z,1.75
2022-09-18T21:01:54.715Z,1.58
2022-09-18T21:04:27.222Z,1.23
2022-09-18T21:06:56.200Z,1.33
2022-09-18T21:09:26.787Z,1.38
2022-09-18T21:11:56.601Z,1.20
2022-09-18T21:14:24.664Z,1.42
2022-09-18T21:16:52.010Z,1.20
2022-09-18T21:19:20.011Z,1.27
2022-09-18T21:21:48.287Z,1.33
2022-09-18T21:24:16.328Z,1.30
2022-09-18T21:26:46.634Z,1.20
2022-09-18T21:29:15.036Z,1.33
2022-09-18T21:31:45.716Z,1.40
2022-09-18T21:34:24.391Z,1.50
2022-09-18T21:36:57.631Z,1.55
2022-09-18T21:39:28.279Z,1.50
2022-09-18T21:41:57.232Z,1.35
2022-09-18T21:44:29.578Z,1.40
2022-09-18T21:47:00.319Z,1.63
2022-09-18T21:49:29.302Z,1.70
2022-09-18T21:52:00.266Z,1.85
2022-09-18T21:54:27.851Z,2.00
2022-09-18T21:56:57.657Z,1.52
2022-09-18T21:59:27.502Z,1.80
2022-09-18T22:01:58.106Z,1.70
2022-09-18T22:04:32.248Z,1.63
2022-09-18T22:07:01.661Z,1.70
2022-09-18T22:09:31.836Z,1.33
2022-09-18T22:12:02.204Z,1.70
2022-09-18T22:14:32.280Z,1.65
2022-09-18T22:17:01.650Z,1.20
2022-09-18T22:19:33.143Z,1.40
2022-09-18T22:22:00.894Z,1.40
2022-09-18T22:24:28.843Z,1.55
2022-09-18T22:27:02.592Z,1.40
2022-09-18T22:29:34.711Z,1.30
2022-09-18T22:32:02.656Z,1.67
2022-09-18T22:34:32.476Z,1.50
2022-09-18T22:37:00.635Z,1.50
2022-09-18T22:39:30.821Z,1.50
2022-09-18T22:41:58.403Z,1.45
2022-09-18T22:44:25.851Z,1.50
2022-09-18T22:46:53.855Z,1.52
2022-09-18T22:49:25.647Z,1.52
2022-09-18T22:54:24.749Z,1.58
2022-09-18T22:56:53.223Z,1.33
2022-09-18T22:59:22.731Z,1.25
2022-09-18T23:01:59.759Z,1.30
2022-09-18T23:04:31.090Z,1.38
2022-09-18T23:07:01.659Z,1.10
2022-09-18T23:09:29.670Z,1.42
2022-09-18T23:11:57.735Z,1.50
2022-09-18T23:14:29.400Z,1.67
2022-09-18T23:19:26.966Z,1.30
2022-09-18T23:21:54.971Z,1.48
2022-09-18T23:24:23.699Z,1.52
2022-09-18T23:26:52.756Z,1.40
2022-09-18T23:29:23.929Z,1.33
2022-09-18T23:31:57.549Z,1.58
2022-09-18T23:34:29.900Z,1.58
2022-09-18T23:36:58.526Z,1.40
2022-09-18T23:39:31.338Z,1.65
2022-09-18T23:42:02.053Z,1.40
2022-09-18T23:44:31.271Z,1.60
2022-09-18T23:47:00.035Z,1.30
2022-09-18T23:49:28.599Z,1.50
2022-09-18T23:51:59.472Z,1.23
2022-09-18T23:54:28.949Z,1.58
2022-09-18T23:56:56.355Z,1.50
2022-09-18T23:59:25.663Z,1.45
